sensor_id;sensor_type;location;lat;lon;timestamp;P1;durP1;ratioP1;P2;durP2;ratioP2
49450;SDS011;35336;48.400;10.886;2023-01-26T00:00:10;28.17;;;16.20;;
49450;SDS011;35336;48.400;10.886;2023-01-26T00:00:26;29.07;;;16.53;;
49450;SDS011;35336;48.400;10.886;2023-01-26T00:00:41;32.15;;;17.17;;
49450;SDS011;35336;48.400;10.886;2023-01-26T00:00:57;32.40;;;17.23;;
49450;SDS011;35336;48.400;10.886;2023-01-26T00:01:13;30.33;;;17.25;;
49450;SDS011;35336;48.400;10.886;2023-01-26T00:01:30;28.17;;;16.48;;
49450;SDS011;35336;48.400;10.886;2023-01-26T00:01:45;27.97;;;16.47;;
49450;SDS011;35336;48.400;10.886;2023-01-26T00:02:01;29.77;;;17.00;;
49450;SDS011;35336;48.400;10.886;2023-01-26T00:02:16;30.33;;;16.67;;
49450;SDS011;35336;48.400;10.886;2023-01-26T00:02:31;28.83;;;16.07;;
49450;SDS011;35336;48.400;10.886;2023-01-26T00:02:47;28.33;;;16.77;;
49450;SDS011;35336;48.400;10.886;2023-01-26T00:03:02;29.17;;;17.20;;
49450;SDS011;35336;48.400;10.886;2023-01-26T00:03:18;30.63;;;17.60;;
49450;SDS011;35336;48.400;10.886;2023-01-26T00:03:34;32.97;;;17.92;;
49450;SDS011;35336;48.400;10.886;2023-01-26T00:03:49;32.03;;;17.63;;
49450;SDS011;35336;48.400;10.886;2023-01-26T00:04:05;29.33;;;17.45;;
49450;SDS011;35336;48.400;10.886;2023-01-26T00:04:20;28.30;;;16.93;;
49450;SDS011;35336;48.400;10.886;2023-01-26T00:04:36;28.50;;;17.23;;
49450;SDS011;35336;48.400;10.886;2023-01-26T00:04:51;33.10;;;18.55;;
49450;SDS011;35336;48.400;10.886;2023-01-26T00:05:06;34.63;;;18.50;;
49450;SDS011;35336;48.400;10.886;2023-01-26T00:05:22;31.33;;;18.00;;
49450;SDS011;35336;48.400;10.886;2023-01-26T00:05:37;32.87;;;18.23;;
49450;SDS011;35336;48.400;10.886;2023-01-26T00:05:53;33.30;;;17.65;;
49450;SDS011;35336;48.400;10.886;2023-01-26T00:06:10;30.80;;;17.97;;
49450;SDS011;35336;48.400;10.886;2023-01-26T00:06:27;32.25;;;18.27;;
49450;SDS011;35336;48.400;10.886;2023-01-26T00:06:42;30.93;;;17.03;;
49450;SDS011;35336;48.400;10.886;2023-01-26T00:06:58;26.80;;;16.83;;
49450;SDS011;35336;48.400;10.886;2023-01-26T00:07:13;28.03;;;17.07;;
49450;SDS011;35336;48.400;10.886;2023-01-26T00:07:28;29.27;;;17.13;;
49450;SDS011;35336;48.400;10.886;2023-01-26T00:07:43;30.73;;;17.53;;
49450;SDS011;35336;48.400;10.886;2023-01-26T00:07:59;29.95;;;17.80;;
49450;SDS011;35336;48.400;10.886;2023-01-26T00:08:14;30.73;;;18.53;;
49450;SDS011;35336;48.400;10.886;2023-01-26T00:08:30;32.77;;;18.57;;
49450;SDS011;35336;48.400;10.886;2023-01-26T00:08:46;30.60;;;17.20;;
49450;SDS011;35336;48.400;10.886;2023-01-26T00:09:03;29.77;;;17.08;;
49450;SDS011;35336;48.400;10.886;2023-01-26T00:09:19;32.45;;;18.02;;
49450;SDS011;35336;48.400;10.886;2023-01-26T00:09:34;34.60;;;18.37;;
49450;SDS011;35336;48.400;10.886;2023-01-26T00:09:50;32.88;;;18.27;;
49450;SDS011;35336;48.400;10.886;2023-01-26T00:10:05;31.63;;;17.77;;
49450;SDS011;35336;48.400;10.886;2023-01-26T00:10:20;32.13;;;17.07;;
49450;SDS011;35336;48.400;10.886;2023-01-26T00:10:36;30.73;;;17.38;;
49450;SDS011;35336;48.400;10.886;2023-01-26T00:10:53;29.73;;;17.48;;
49450;SDS011;35336;48.400;10.886;2023-01-26T00:11:09;28.57;;;17.00;;
49450;SDS011;35336;48.400;10.886;2023-01-26T00:11:26;29.45;;;17.20;;
49450;SDS011;35336;48.400;10.886;2023-01-26T00:11:42;30.42;;;17.02;;
49450;SDS011;35336;48.400;10.886;2023-01-26T00:11:57;31.13;;;17.13;;
49450;SDS011;35336;48.400;10.886;2023-01-26T00:12:13;29.85;;;16.90;;
49450;SDS011;35336;48.400;10.886;2023-01-26T00:12:28;30.00;;;17.10;;
49450;SDS011;35336;48.400;10.886;2023-01-26T00:12:43;30.70;;;16.90;;
49450;SDS011;35336;48.400;10.886;2023-01-26T00:12:58;30.35;;;17.35;;
49450;SDS011;35336;48.400;10.886;2023-01-26T00:13:15;31.00;;;18.10;;
49450;SDS011;35336;48.400;10.886;2023-01-26T00:13:33;28.52;;;17.42;;
49450;SDS011;35336;48.400;10.886;2023-01-26T00:13:49;29.75;;;17.40;;
49450;SDS011;35336;48.400;10.886;2023-01-26T00:14:05;32.15;;;17.52;;
49450;SDS011;35336;48.400;10.886;2023-01-26T00:14:20;31.88;;;18.13;;
49450;SDS011;35336;48.400;10.886;2023-01-26T00:14:35;30.00;;;18.13;;
49450;SDS011;35336;48.400;10.886;2023-01-26T00:14:51;28.87;;;17.23;;
49450;SDS011;35336;48.400;10.886;2023-01-26T00:15:06;29.20;;;16.73;;
49450;SDS011;35336;48.400;10.886;2023-01-26T00:15:22;28.43;;;16.27;;
49450;SDS011;35336;48.400;10.886;2023-01-26T00:15:37;32.10;;;17.40;;
49450;SDS011;35336;48.400;10.886;2023-01-26T00:15:52;34.63;;;18.38;;
49450;SDS011;35336;48.400;10.886;2023-01-26T00:16:12;31.20;;;17.80;;
49450;SDS011;35336;48.400;10.886;2023-01-26T00:16:28;28.00;;;16.88;;
49450;SDS011;35336;48.400;10.886;2023-01-26T00:16:43;27.70;;;17.03;;
49450;SDS011;35336;48.400;10.886;2023-01-26T00:16:59;28.20;;;17.13;;
49450;SDS011;35336;48.400;10.886;2023-01-26T00:17:15;29.13;;;17.05;;
49450;SDS011;35336;48.400;10.886;2023-01-26T00:17:31;28.02;;;16.48;;
49450;SDS011;35336;48.400;10.886;2023-01-26T00:17:46;28.20;;;16.52;;
49450;SDS011;35336;48.400;10.886;2023-01-26T00:18:02;28.00;;;16.50;;
49450;SDS011;35336;48.400;10.886;2023-01-26T00:18:17;27.75;;;16.08;;
49450;SDS011;35336;48.400;10.886;2023-01-26T00:18:33;29.70;;;16.93;;
49450;SDS011;35336;48.400;10.886;2023-01-26T00:18:48;30.52;;;17.27;;
49450;SDS011;35336;48.400;10.886;2023-01-26T00:19:04;29.77;;;16.80;;
49450;SDS011;35336;48.400;10.886;2023-01-26T00:19:19;31.37;;;16.87;;
49450;SDS011;35336;48.400;10.886;2023-01-26T00:19:35;32.50;;;16.80;;
49450;SDS011;35336;48.400;10.886;2023-01-26T00:19:51;30.63;;;17.00;;
49450;SDS011;35336;48.400;10.886;2023-01-26T00:20:07;32.00;;;18.13;;
49450;SDS011;35336;48.400;10.886;2023-01-26T00:20:23;29.70;;;17.95;;
49450;SDS011;35336;48.400;10.886;2023-01-26T00:20:39;28.63;;;16.73;;
49450;SDS011;35336;48.400;10.886;2023-01-26T00:20:55;29.07;;;16.73;;
49450;SDS011;35336;48.400;10.886;2023-01-26T00:21:18;31.15;;;17.15;;
49450;SDS011;35336;48.400;10.886;2023-01-26T00:21:35;31.70;;;17.27;;
49450;SDS011;35336;48.400;10.886;2023-01-26T00:21:50;31.13;;;17.37;;
49450;SDS011;35336;48.400;10.886;2023-01-26T00:22:06;28.63;;;16.83;;
49450;SDS011;35336;48.400;10.886;2023-01-26T00:22:21;27.13;;;15.83;;
49450;SDS011;35336;48.400;10.886;2023-01-26T00:22:39;26.95;;;16.30;;
49450;SDS011;35336;48.400;10.886;2023-01-26T00:22:54;25.20;;;15.97;;
49450;SDS011;35336;48.400;10.886;2023-01-26T00:23:09;26.13;;;16.03;;
49450;SDS011;35336;48.400;10.886;2023-01-26T00:23:25;28.98;;;16.60;;
49450;SDS011;35336;48.400;10.886;2023-01-26T00:23:42;30.88;;;17.25;;
49450;SDS011;35336;48.400;10.886;2023-01-26T00:23:57;32.07;;;17.30;;
49450;SDS011;35336;48.400;10.886;2023-01-26T00:24:13;30.17;;;16.07;;
49450;SDS011;35336;48.400;10.886;2023-01-26T00:24:28;29.25;;;16.52;;
49450;SDS011;35336;48.400;10.886;2023-01-26T00:24:43;32.17;;;17.60;;
49450;SDS011;35336;48.400;10.886;2023-01-26T00:24:59;31.98;;;16.90;;
49450;SDS011;35336;48.400;10.886;2023-01-26T00:25:14;30.60;;;17.17;;
49450;SDS011;35336;48.400;10.886;2023-01-26T00:25:29;29.67;;;17.47;;
49450;SDS011;35336;48.400;10.886;2023-01-26T00:25:45;29.52;;;17.30;;
49450;SDS011;35336;48.400;10.886;2023-01-26T00:26:00;29.60;;;16.60;;
49450;SDS011;35336;48.400;10.886;2023-01-26T00:26:20;31.02;;;16.20;;
49450;SDS011;35336;48.400;10.886;2023-01-26T00:26:37;29.58;;;16.50;;
49450;SDS011;35336;48.400;10.886;2023-01-26T00:26:52;28.77;;;16.97;;
49450;SDS011;35336;48.400;10.886;2023-01-26T00:27:07;30.93;;;16.83;;
49450;SDS011;35336;48.400;10.886;2023-01-26T00:27:23;28.00;;;15.70;;
49450;SDS011;35336;48.400;10.886;2023-01-26T00:27:38;28.43;;;16.10;;
49450;SDS011;35336;48.400;10.886;2023-01-26T00:27:53;28.97;;;15.90;;
49450;SDS011;35336;48.400;10.886;2023-01-26T00:28:09;26.70;;;15.45;;
49450;SDS011;35336;48.400;10.886;2023-01-26T00:28:24;26.00;;;15.40;;
49450;SDS011;35336;48.400;10.886;2023-01-26T00:28:39;26.17;;;15.20;;
49450;SDS011;35336;48.400;10.886;2023-01-26T00:28:55;29.52;;;15.63;;
49450;SDS011;35336;48.400;10.886;2023-01-26T00:29:10;29.27;;;15.70;;
49450;SDS011;35336;48.400;10.886;2023-01-26T00:29:25;26.08;;;15.25;;
49450;SDS011;35336;48.400;10.886;2023-01-26T00:29:41;24.93;;;15.07;;
49450;SDS011;35336;48.400;10.886;2023-01-26T00:29:56;25.17;;;15.47;;
49450;SDS011;35336;48.400;10.886;2023-01-26T00:30:11;29.27;;;15.43;;
49450;SDS011;35336;48.400;10.886;2023-01-26T00:30:27;29.38;;;15.43;;
49450;SDS011;35336;48.400;10.886;2023-01-26T00:30:43;26.87;;;15.23;;
49450;SDS011;35336;48.400;10.886;2023-01-26T00:31:05;28.27;;;15.13;;
49450;SDS011;35336;48.400;10.886;2023-01-26T00:31:23;26.42;;;14.98;;
49450;SDS011;35336;48.400;10.886;2023-01-26T00:31:40;27.05;;;15.68;;
49450;SDS011;35336;48.400;10.886;2023-01-26T00:31:55;26.67;;;15.40;;
49450;SDS011;35336;48.400;10.886;2023-01-26T00:32:10;26.25;;;15.13;;
49450;SDS011;35336;48.400;10.886;2023-01-26T00:32:26;25.63;;;15.07;;
49450;SDS011;35336;48.400;10.886;2023-01-26T00:32:41;25.80;;;15.20;;
49450;SDS011;35336;48.400;10.886;2023-01-26T00:32:57;26.48;;;15.20;;
49450;SDS011;35336;48.400;10.886;2023-01-26T00:33:12;24.92;;;15.05;;
49450;SDS011;35336;48.400;10.886;2023-01-26T00:33:28;24.23;;;14.97;;
49450;SDS011;35336;48.400;10.886;2023-01-26T00:33:43;27.30;;;15.02;;
49450;SDS011;35336;48.400;10.886;2023-01-26T00:33:59;28.97;;;15.67;;
49450;SDS011;35336;48.400;10.886;2023-01-26T00:34:15;28.08;;;15.93;;
49450;SDS011;35336;48.400;10.886;2023-01-26T00:34:30;26.93;;;15.43;;
49450;SDS011;35336;48.400;10.886;2023-01-26T00:34:45;27.13;;;14.87;;
49450;SDS011;35336;48.400;10.886;2023-01-26T00:35:01;26.77;;;14.33;;
49450;SDS011;35336;48.400;10.886;2023-01-26T00:35:17;26.20;;;15.20;;
49450;SDS011;35336;48.400;10.886;2023-01-26T00:35:32;26.67;;;16.53;;
49450;SDS011;35336;48.400;10.886;2023-01-26T00:35:54;26.40;;;16.30;;
49450;SDS011;35336;48.400;10.886;2023-01-26T00:36:10;28.35;;;16.02;;
49450;SDS011;35336;48.400;10.886;2023-01-26T00:36:25;28.55;;;15.77;;
49450;SDS011;35336;48.400;10.886;2023-01-26T00:36:41;27.40;;;15.60;;
49450;SDS011;35336;48.400;10.886;2023-01-26T00:36:56;25.70;;;15.30;;
49450;SDS011;35336;48.400;10.886;2023-01-26T00:37:11;25.73;;;15.47;;
49450;SDS011;35336;48.400;10.886;2023-01-26T00:37:27;28.30;;;15.47;;
49450;SDS011;35336;48.400;10.886;2023-01-26T00:37:42;27.10;;;14.85;;
49450;SDS011;35336;48.400;10.886;2023-01-26T00:37:57;26.23;;;15.10;;
49450;SDS011;35336;48.400;10.886;2023-01-26T00:38:13;27.00;;;15.57;;
49450;SDS011;35336;48.400;10.886;2023-01-26T00:38:28;24.73;;;14.73;;
49450;SDS011;35336;48.400;10.886;2023-01-26T00:38:43;25.40;;;14.50;;
49450;SDS011;35336;48.400;10.886;2023-01-26T00:38:59;25.07;;;14.87;;
49450;SDS011;35336;48.400;10.886;2023-01-26T00:39:14;25.08;;;15.15;;
49450;SDS011;35336;48.400;10.886;2023-01-26T00:39:29;27.67;;;15.00;;
49450;SDS011;35336;48.400;10.886;2023-01-26T00:39:44;27.43;;;14.93;;
49450;SDS011;35336;48.400;10.886;2023-01-26T00:40:00;26.17;;;14.93;;
49450;SDS011;35336;48.400;10.886;2023-01-26T00:40:15;25.20;;;14.80;;
49450;SDS011;35336;48.400;10.886;2023-01-26T00:40:30;25.17;;;15.10;;
49450;SDS011;35336;48.400;10.886;2023-01-26T00:40:46;25.00;;;15.00;;
49450;SDS011;35336;48.400;10.886;2023-01-26T00:41:01;23.90;;;14.57;;
49450;SDS011;35336;48.400;10.886;2023-01-26T00:41:16;25.03;;;14.87;;
49450;SDS011;35336;48.400;10.886;2023-01-26T00:41:32;25.20;;;14.93;;
49450;SDS011;35336;48.400;10.886;2023-01-26T00:41:47;24.27;;;14.83;;
49450;SDS011;35336;48.400;10.886;2023-01-26T00:42:02;24.87;;;14.73;;
49450;SDS011;35336;48.400;10.886;2023-01-26T00:42:18;26.75;;;15.20;;
49450;SDS011;35336;48.400;10.886;2023-01-26T00:42:33;27.47;;;15.47;;
49450;SDS011;35336;48.400;10.886;2023-01-26T00:42:48;26.87;;;15.37;;
49450;SDS011;35336;48.400;10.886;2023-01-26T00:43:04;27.05;;;15.38;;
49450;SDS011;35336;48.400;10.886;2023-01-26T00:43:20;25.10;;;14.82;;
49450;SDS011;35336;48.400;10.886;2023-01-26T00:43:35;24.10;;;14.17;;
49450;SDS011;35336;48.400;10.886;2023-01-26T00:43:51;24.50;;;14.55;;
49450;SDS011;35336;48.400;10.886;2023-01-26T00:44:06;27.10;;;15.63;;
49450;SDS011;35336;48.400;10.886;2023-01-26T00:44:21;28.30;;;16.00;;
49450;SDS011;35336;48.400;10.886;2023-01-26T00:44:37;26.02;;;15.50;;
49450;SDS011;35336;48.400;10.886;2023-01-26T00:44:52;26.67;;;15.13;;
49450;SDS011;35336;48.400;10.886;2023-01-26T00:45:08;26.48;;;14.82;;
49450;SDS011;35336;48.400;10.886;2023-01-26T00:45:23;26.20;;;15.30;;
49450;SDS011;35336;48.400;10.886;2023-01-26T00:45:39;26.45;;;15.68;;
49450;SDS011;35336;48.400;10.886;2023-01-26T00:45:54;25.70;;;14.57;;
49450;SDS011;35336;48.400;10.886;2023-01-26T00:46:09;27.52;;;14.85;;
49450;SDS011;35336;48.400;10.886;2023-01-26T00:46:25;27.67;;;15.63;;
49450;SDS011;35336;48.400;10.886;2023-01-26T00:46:40;26.33;;;15.25;;
49450;SDS011;35336;48.400;10.886;2023-01-26T00:46:56;26.07;;;15.13;;
49450;SDS011;35336;48.400;10.886;2023-01-26T00:47:12;26.33;;;14.87;;
49450;SDS011;35336;48.400;10.886;2023-01-26T00:47:28;26.08;;;14.25;;
49450;SDS011;35336;48.400;10.886;2023-01-26T00:47:43;24.93;;;14.60;;
49450;SDS011;35336;48.400;10.886;2023-01-26T00:47:59;25.67;;;14.98;;
49450;SDS011;35336;48.400;10.886;2023-01-26T00:48:14;28.27;;;14.90;;
49450;SDS011;35336;48.400;10.886;2023-01-26T00:48:29;26.98;;;15.27;;
49450;SDS011;35336;48.400;10.886;2023-01-26T00:48:45;26.67;;;15.40;;
49450;SDS011;35336;48.400;10.886;2023-01-26T00:49:00;27.60;;;15.27;;
49450;SDS011;35336;48.400;10.886;2023-01-26T00:49:15;26.20;;;15.27;;
49450;SDS011;35336;48.400;10.886;2023-01-26T00:49:31;27.63;;;15.23;;
49450;SDS011;35336;48.400;10.886;2023-01-26T00:49:46;30.58;;;15.95;;
49450;SDS011;35336;48.400;10.886;2023-01-26T00:50:02;28.20;;;15.43;;
49450;SDS011;35336;48.400;10.886;2023-01-26T00:50:17;24.93;;;14.20;;
49450;SDS011;35336;48.400;10.886;2023-01-26T00:50:33;24.88;;;14.60;;
49450;SDS011;35336;48.400;10.886;2023-01-26T00:50:51;24.93;;;14.90;;
49450;SDS011;35336;48.400;10.886;2023-01-26T00:51:07;27.55;;;15.60;;
49450;SDS011;35336;48.400;10.886;2023-01-26T00:51:22;28.97;;;15.60;;
49450;SDS011;35336;48.400;10.886;2023-01-26T00:51:37;25.10;;;14.68;;
49450;SDS011;35336;48.400;10.886;2023-01-26T00:51:53;24.03;;;15.00;;
49450;SDS011;35336;48.400;10.886;2023-01-26T00:52:08;26.10;;;15.30;;
49450;SDS011;35336;48.400;10.886;2023-01-26T00:52:25;28.02;;;14.95;;
49450;SDS011;35336;48.400;10.886;2023-01-26T00:52:40;26.38;;;14.43;;
49450;SDS011;35336;48.400;10.886;2023-01-26T00:52:55;24.27;;;14.17;;
49450;SDS011;35336;48.400;10.886;2023-01-26T00:53:11;25.93;;;14.63;;
49450;SDS011;35336;48.400;10.886;2023-01-26T00:53:26;26.40;;;15.23;;
49450;SDS011;35336;48.400;10.886;2023-01-26T00:53:41;26.83;;;15.20;;
49450;SDS011;35336;48.400;10.886;2023-01-26T00:54:00;26.03;;;14.97;;
49450;SDS011;35336;48.400;10.886;2023-01-26T00:54:15;23.92;;;14.65;;
49450;SDS011;35336;48.400;10.886;2023-01-26T00:54:31;25.57;;;15.43;;
49450;SDS011;35336;48.400;10.886;2023-01-26T00:54:46;26.35;;;15.70;;
49450;SDS011;35336;48.400;10.886;2023-01-26T00:55:01;26.13;;;15.47;;
49450;SDS011;35336;48.400;10.886;2023-01-26T00:55:17;26.02;;;15.60;;
49450;SDS011;35336;48.400;10.886;2023-01-26T00:55:32;27.23;;;15.43;;
49450;SDS011;35336;48.400;10.886;2023-01-26T00:55:48;28.40;;;16.03;;
49450;SDS011;35336;48.400;10.886;2023-01-26T00:56:03;27.52;;;16.15;;
49450;SDS011;35336;48.400;10.886;2023-01-26T00:56:19;27.77;;;15.83;;
49450;SDS011;35336;48.400;10.886;2023-01-26T00:56:34;26.83;;;16.05;;
49450;SDS011;35336;48.400;10.886;2023-01-26T00:56:49;27.50;;;16.17;;
49450;SDS011;35336;48.400;10.886;2023-01-26T00:57:05;27.30;;;15.97;;
49450;SDS011;35336;48.400;10.886;2023-01-26T00:57:20;26.35;;;15.60;;
49450;SDS011;35336;48.400;10.886;2023-01-26T00:57:35;25.90;;;15.17;;
49450;SDS011;35336;48.400;10.886;2023-01-26T00:57:51;25.13;;;14.95;;
49450;SDS011;35336;48.400;10.886;2023-01-26T00:58:06;24.17;;;14.63;;
49450;SDS011;35336;48.400;10.886;2023-01-26T00:58:23;24.70;;;14.80;;
49450;SDS011;35336;48.400;10.886;2023-01-26T00:58:38;27.13;;;15.57;;
49450;SDS011;35336;48.400;10.886;2023-01-26T00:58:53;28.07;;;15.23;;
49450;SDS011;35336;48.400;10.886;2023-01-26T00:59:09;27.80;;;15.43;;
49450;SDS011;35336;48.400;10.886;2023-01-26T00:59:24;26.63;;;15.95;;
49450;SDS011;35336;48.400;10.886;2023-01-26T00:59:39;26.00;;;15.93;;
49450;SDS011;35336;48.400;10.886;2023-01-26T00:59:55;26.30;;;16.05;;
49450;SDS011;35336;48.400;10.886;2023-01-26T01:00:10;26.60;;;15.80;;
49450;SDS011;35336;48.400;10.886;2023-01-26T01:00:26;28.25;;;16.02;;
49450;SDS011;35336;48.400;10.886;2023-01-26T01:00:41;29.77;;;16.47;;
49450;SDS011;35336;48.400;10.886;2023-01-26T01:00:57;29.45;;;16.40;;
49450;SDS011;35336;48.400;10.886;2023-01-26T01:01:12;28.23;;;16.33;;
49450;SDS011;35336;48.400;10.886;2023-01-26T01:01:27;27.20;;;16.03;;
49450;SDS011;35336;48.400;10.886;2023-01-26T01:01:43;28.20;;;15.88;;
49450;SDS011;35336;48.400;10.886;2023-01-26T01:01:58;30.07;;;16.80;;
49450;SDS011;35336;48.400;10.886;2023-01-26T01:02:14;28.00;;;16.40;;
49450;SDS011;35336;48.400;10.886;2023-01-26T01:02:29;29.33;;;16.30;;
49450;SDS011;35336;48.400;10.886;2023-01-26T01:02:44;30.00;;;16.50;;
49450;SDS011;35336;48.400;10.886;2023-01-26T01:03:00;28.35;;;15.75;;
49450;SDS011;35336;48.400;10.886;2023-01-26T01:03:15;28.98;;;15.70;;
49450;SDS011;35336;48.400;10.886;2023-01-26T01:03:31;28.53;;;15.93;;
49450;SDS011;35336;48.400;10.886;2023-01-26T01:03:46;27.87;;;16.03;;
49450;SDS011;35336;48.400;10.886;2023-01-26T01:04:01;25.95;;;15.40;;
49450;SDS011;35336;48.400;10.886;2023-01-26T01:04:17;26.87;;;16.10;;
49450;SDS011;35336;48.400;10.886;2023-01-26T01:04:32;29.00;;;16.60;;
49450;SDS011;35336;48.400;10.886;2023-01-26T01:04:48;27.08;;;15.80;;
49450;SDS011;35336;48.400;10.886;2023-01-26T01:05:03;25.30;;;15.30;;
49450;SDS011;35336;48.400;10.886;2023-01-26T01:05:19;25.88;;;15.57;;
49450;SDS011;35336;48.400;10.886;2023-01-26T01:05:34;26.83;;;15.63;;
49450;SDS011;35336;48.400;10.886;2023-01-26T01:05:50;28.30;;;15.80;;
49450;SDS011;35336;48.400;10.886;2023-01-26T01:06:06;29.02;;;15.82;;
49450;SDS011;35336;48.400;10.886;2023-01-26T01:06:21;29.33;;;15.37;;
49450;SDS011;35336;48.400;10.886;2023-01-26T01:06:36;29.97;;;15.10;;
49450;SDS011;35336;48.400;10.886;2023-01-26T01:06:52;28.67;;;15.32;;
49450;SDS011;35336;48.400;10.886;2023-01-26T01:07:07;28.43;;;15.93;;
49450;SDS011;35336;48.400;10.886;2023-01-26T01:07:22;28.55;;;16.02;;
49450;SDS011;35336;48.400;10.886;2023-01-26T01:07:38;26.37;;;15.57;;
49450;SDS011;35336;48.400;10.886;2023-01-26T01:07:53;26.05;;;15.18;;
49450;SDS011;35336;48.400;10.886;2023-01-26T01:08:09;26.60;;;15.40;;
49450;SDS011;35336;48.400;10.886;2023-01-26T01:08:24;26.55;;;15.98;;
49450;SDS011;35336;48.400;10.886;2023-01-26T01:08:39;25.67;;;15.67;;
49450;SDS011;35336;48.400;10.886;2023-01-26T01:08:55;25.87;;;14.70;;
49450;SDS011;35336;48.400;10.886;2023-01-26T01:09:10;26.42;;;14.35;;
49450;SDS011;35336;48.400;10.886;2023-01-26T01:09:26;24.88;;;14.63;;
49450;SDS011;35336;48.400;10.886;2023-01-26T01:09:42;23.90;;;14.70;;
49450;SDS011;35336;48.400;10.886;2023-01-26T01:09:59;25.10;;;14.48;;
49450;SDS011;35336;48.400;10.886;2023-01-26T01:10:15;25.63;;;14.27;;
49450;SDS011;35336;48.400;10.886;2023-01-26T01:10:30;25.85;;;14.70;;
49450;SDS011;35336;48.400;10.886;2023-01-26T01:10:46;26.20;;;15.50;;
49450;SDS011;35336;48.400;10.886;2023-01-26T01:11:05;27.17;;;16.07;;
49450;SDS011;35336;48.400;10.886;2023-01-26T01:11:22;25.58;;;14.90;;
49450;SDS011;35336;48.400;10.886;2023-01-26T01:11:37;26.37;;;14.73;;
49450;SDS011;35336;48.400;10.886;2023-01-26T01:11:53;26.63;;;15.33;;
49450;SDS011;35336;48.400;10.886;2023-01-26T01:12:08;27.35;;;15.82;;
49450;SDS011;35336;48.400;10.886;2023-01-26T01:12:23;27.23;;;15.40;;
49450;SDS011;35336;48.400;10.886;2023-01-26T01:12:39;26.00;;;15.23;;
49450;SDS011;35336;48.400;10.886;2023-01-26T01:12:54;27.95;;;15.85;;
49450;SDS011;35336;48.400;10.886;2023-01-26T01:13:10;26.13;;;15.33;;
49450;SDS011;35336;48.400;10.886;2023-01-26T01:13:25;24.35;;;14.55;;
49450;SDS011;35336;48.400;10.886;2023-01-26T01:13:40;24.47;;;14.43;;
49450;SDS011;35336;48.400;10.886;2023-01-26T01:13:56;23.25;;;13.95;;
49450;SDS011;35336;48.400;10.886;2023-01-26T01:14:12;23.40;;;14.33;;
49450;SDS011;35336;48.400;10.886;2023-01-26T01:14:27;25.20;;;14.98;;
49450;SDS011;35336;48.400;10.886;2023-01-26T01:14:43;26.95;;;15.60;;
49450;SDS011;35336;48.400;10.886;2023-01-26T01:14:58;27.53;;;15.40;;
49450;SDS011;35336;48.400;10.886;2023-01-26T01:15:13;27.93;;;15.33;;
49450;SDS011;35336;48.400;10.886;2023-01-26T01:15:29;27.42;;;15.82;;
49450;SDS011;35336;48.400;10.886;2023-01-26T01:15:44;24.90;;;15.10;;
49450;SDS011;35336;48.400;10.886;2023-01-26T01:15:59;24.47;;;14.93;;
49450;SDS011;35336;48.400;10.886;2023-01-26T01:16:18;24.17;;;15.20;;
49450;SDS011;35336;48.400;10.886;2023-01-26T01:16:33;25.33;;;15.00;;
49450;SDS011;35336;48.400;10.886;2023-01-26T01:16:49;26.07;;;15.03;;
49450;SDS011;35336;48.400;10.886;2023-01-26T01:17:04;24.87;;;14.93;;
49450;SDS011;35336;48.400;10.886;2023-01-26T01:17:19;25.77;;;15.13;;
49450;SDS011;35336;48.400;10.886;2023-01-26T01:17:35;26.38;;;15.35;;
49450;SDS011;35336;48.400;10.886;2023-01-26T01:17:50;27.00;;;15.10;;
49450;SDS011;35336;48.400;10.886;2023-01-26T01:18:05;25.90;;;14.33;;
49450;SDS011;35336;48.400;10.886;2023-01-26T01:18:21;25.17;;;14.25;;
49450;SDS011;35336;48.400;10.886;2023-01-26T01:18:36;27.03;;;15.33;;
49450;SDS011;35336;48.400;10.886;2023-01-26T01:18:52;27.52;;;15.48;;
49450;SDS011;35336;48.400;10.886;2023-01-26T01:19:10;29.58;;;14.95;;
49450;SDS011;35336;48.400;10.886;2023-01-26T01:19:28;23.83;;;14.10;;
49450;SDS011;35336;48.400;10.886;2023-01-26T01:19:43;21.67;;;13.73;;
49450;SDS011;35336;48.400;10.886;2023-01-26T01:19:58;24.35;;;14.13;;
49450;SDS011;35336;48.400;10.886;2023-01-26T01:20:14;25.93;;;14.70;;
49450;SDS011;35336;48.400;10.886;2023-01-26T01:20:29;24.67;;;14.53;;
49450;SDS011;35336;48.400;10.886;2023-01-26T01:20:44;24.23;;;14.38;;
49450;SDS011;35336;48.400;10.886;2023-01-26T01:21:04;24.07;;;14.47;;
49450;SDS011;35336;48.400;10.886;2023-01-26T01:21:27;25.67;;;14.95;;
49450;SDS011;35336;48.400;10.886;2023-01-26T01:21:42;27.20;;;15.27;;
49450;SDS011;35336;48.400;10.886;2023-01-26T01:21:58;26.45;;;15.15;;
49450;SDS011;35336;48.400;10.886;2023-01-26T01:22:13;26.20;;;15.18;;
49450;SDS011;35336;48.400;10.886;2023-01-26T01:22:29;26.20;;;15.00;;
49450;SDS011;35336;48.400;10.886;2023-01-26T01:22:44;26.53;;;15.00;;
49450;SDS011;35336;48.400;10.886;2023-01-26T01:23:00;26.10;;;15.02;;
49450;SDS011;35336;48.400;10.886;2023-01-26T01:23:15;26.07;;;14.67;;
49450;SDS011;35336;48.400;10.886;2023-01-26T01:23:30;26.10;;;14.00;;
49450;SDS011;35336;48.400;10.886;2023-01-26T01:23:46;26.60;;;14.30;;
49450;SDS011;35336;48.400;10.886;2023-01-26T01:24:01;26.30;;;15.00;;
49450;SDS011;35336;48.400;10.886;2023-01-26T01:24:16;24.35;;;15.00;;
49450;SDS011;35336;48.400;10.886;2023-01-26T01:24:32;24.27;;;14.60;;
49450;SDS011;35336;48.400;10.886;2023-01-26T01:24:47;24.43;;;14.03;;
49450;SDS011;35336;48.400;10.886;2023-01-26T01:25:02;23.00;;;13.73;;
49450;SDS011;35336;48.400;10.886;2023-01-26T01:25:18;23.50;;;14.20;;
49450;SDS011;35336;48.400;10.886;2023-01-26T01:25:34;23.70;;;14.40;;
49450;SDS011;35336;48.400;10.886;2023-01-26T01:25:55;23.23;;;14.53;;
49450;SDS011;35336;48.400;10.886;2023-01-26T01:26:12;24.65;;;14.43;;
49450;SDS011;35336;48.400;10.886;2023-01-26T01:26:28;25.25;;;14.55;;
49450;SDS011;35336;48.400;10.886;2023-01-26T01:26:43;25.30;;;14.40;;
49450;SDS011;35336;48.400;10.886;2023-01-26T01:26:59;25.70;;;13.97;;
49450;SDS011;35336;48.400;10.886;2023-01-26T01:27:14;25.30;;;14.77;;
49450;SDS011;35336;48.400;10.886;2023-01-26T01:27:29;24.00;;;14.77;;
49450;SDS011;35336;48.400;10.886;2023-01-26T01:27:45;25.77;;;14.60;;
49450;SDS011;35336;48.400;10.886;2023-01-26T01:28:00;27.30;;;14.35;;
49450;SDS011;35336;48.400;10.886;2023-01-26T01:28:15;22.37;;;13.17;;
49450;SDS011;35336;48.400;10.886;2023-01-26T01:28:31;21.60;;;13.30;;
49450;SDS011;35336;48.400;10.886;2023-01-26T01:28:47;24.70;;;14.50;;
49450;SDS011;35336;48.400;10.886;2023-01-26T01:29:03;24.80;;;14.73;;
49450;SDS011;35336;48.400;10.886;2023-01-26T01:29:19;23.77;;;14.27;;
49450;SDS011;35336;48.400;10.886;2023-01-26T01:29:34;22.70;;;13.63;;
49450;SDS011;35336;48.400;10.886;2023-01-26T01:29:50;22.38;;;13.15;;
49450;SDS011;35336;48.400;10.886;2023-01-26T01:30:06;24.30;;;14.05;;
49450;SDS011;35336;48.400;10.886;2023-01-26T01:30:22;23.83;;;14.50;;
49450;SDS011;35336;48.400;10.886;2023-01-26T01:30:37;22.70;;;14.00;;